sensor_id;sensor_type;location;lat;lon;timestamp;P1;durP1;ratioP1;P2;durP2;ratioP2
36443;SDS011;24692;45.642;13.806;2023-06-14T00:00:19;4.35;;;3.95;;
36443;SDS011;24692;45.642;13.806;2023-06-14T00:02:45;5.03;;;4.22;;
36443;SDS011;24692;45.642;13.806;2023-06-14T00:05:11;6.83;;;3.80;;
36443;SDS011;24692;45.642;13.806;2023-06-14T00:07:38;6.53;;;4.00;;
36443;SDS011;24692;45.642;13.806;2023-06-14T00:10:08;4.40;;;3.90;;
36443;SDS011;24692;45.642;13.806;2023-06-14T00:12:35;5.80;;;4.30;;
36443;SDS011;24692;45.642;13.806;2023-06-14T00:15:01;4.72;;;4.13;;
36443;SDS011;24692;45.642;13.806;2023-06-14T00:17:27;4.95;;;3.75;;
36443;SDS011;24692;45.642;13.806;2023-06-14T00:19:56;6.90;;;4.50;;
36443;SDS011;24692;45.642;13.806;2023-06-14T00:22:25;4.83;;;4.40;;
36443;SDS011;24692;45.642;13.806;2023-06-14T00:24:51;7.47;;;3.85;;
36443;SDS011;24692;45.642;13.806;2023-06-14T00:27:16;8.63;;;4.07;;
36443;SDS011;24692;45.642;13.806;2023-06-14T00:29:42;5.60;;;4.00;;
36443;SDS011;24692;45.642;13.806;2023-06-14T00:32:08;8.30;;;4.15;;
36443;SDS011;24692;45.642;13.806;2023-06-14T00:34:34;5.45;;;4.00;;
36443;SDS011;24692;45.642;13.806;2023-06-14T00:36:59;6.57;;;4.10;;
36443;SDS011;24692;45.642;13.806;2023-06-14T00:39:25;5.70;;;3.70;;
36443;SDS011;24692;45.642;13.806;2023-06-14T00:41:51;6.25;;;3.80;;
36443;SDS011;24692;45.642;13.806;2023-06-14T00:44:16;4.30;;;3.80;;
36443;SDS011;24692;45.642;13.806;2023-06-14T00:46:43;7.15;;;3.88;;
36443;SDS011;24692;45.642;13.806;2023-06-14T00:49:10;6.50;;;3.70;;
36443;SDS011;24692;45.642;13.806;2023-06-14T00:51:37;4.30;;;3.90;;
36443;SDS011;24692;45.642;13.806;2023-06-14T00:54:04;5.05;;;3.67;;
36443;SDS011;24692;45.642;13.806;2023-06-14T00:56:30;6.35;;;4.20;;
36443;SDS011;24692;45.642;13.806;2023-06-14T00:58:56;4.10;;;3.70;;
36443;SDS011;24692;45.642;13.806;2023-06-14T01:01:22;5.33;;;3.60;;
36443;SDS011;24692;45.642;13.806;2023-06-14T01:03:49;4.50;;;3.67;;
36443;SDS011;24692;45.642;13.806;2023-06-14T01:12:27;4.30;;;3.90;;
36443;SDS011;24692;45.642;13.806;2023-06-14T01:14:39;5.53;;;3.88;;
36443;SDS011;24692;45.642;13.806;2023-06-14T01:17:06;4.60;;;3.65;;
36443;SDS011;24692;45.642;13.806;2023-06-14T01:19:40;5.83;;;3.97;;
36443;SDS011;24692;45.642;13.806;2023-06-14T01:22:08;5.40;;;3.58;;
36443;SDS011;24692;45.642;13.806;2023-06-14T01:24:33;5.30;;;3.92;;
36443;SDS011;24692;45.642;13.806;2023-06-14T01:26:59;4.87;;;3.70;;
36443;SDS011;24692;45.642;13.806;2023-06-14T01:29:27;5.60;;;4.00;;
36443;SDS011;24692;45.642;13.806;2023-06-14T01:31:57;6.63;;;3.78;;
36443;SDS011;24692;45.642;13.806;2023-06-14T01:34:26;6.47;;;3.80;;
36443;SDS011;24692;45.642;13.806;2023-06-14T01:36:52;6.13;;;3.60;;
36443;SDS011;24692;45.642;13.806;2023-06-14T01:39:22;6.03;;;3.80;;
36443;SDS011;24692;45.642;13.806;2023-06-14T01:41:48;4.35;;;3.67;;
36443;SDS011;24692;45.642;13.806;2023-06-14T01:44:16;7.88;;;3.95;;
36443;SDS011;24692;45.642;13.806;2023-06-14T01:46:43;5.07;;;3.63;;
36443;SDS011;24692;45.642;13.806;2023-06-14T01:49:10;4.43;;;3.50;;
36443;SDS011;24692;45.642;13.806;2023-06-14T01:51:36;5.57;;;3.73;;
36443;SDS011;24692;45.642;13.806;2023-06-14T01:54:02;5.83;;;3.80;;
36443;SDS011;24692;45.642;13.806;2023-06-14T01:56:28;4.55;;;3.90;;
36443;SDS011;24692;45.642;13.806;2023-06-14T01:58:53;5.90;;;4.33;;
36443;SDS011;24692;45.642;13.806;2023-06-14T02:01:19;6.63;;;4.05;;
36443;SDS011;24692;45.642;13.806;2023-06-14T02:03:46;4.90;;;3.80;;
36443;SDS011;24692;45.642;13.806;2023-06-14T02:06:14;7.80;;;3.60;;
36443;SDS011;24692;45.642;13.806;2023-06-14T02:08:41;4.40;;;3.72;;
36443;SDS011;24692;45.642;13.806;2023-06-14T02:11:07;5.17;;;3.60;;
36443;SDS011;24692;45.642;13.806;2023-06-14T02:13:33;6.13;;;4.00;;
36443;SDS011;24692;45.642;13.806;2023-06-14T02:15:59;6.55;;;3.90;;
36443;SDS011;24692;45.642;13.806;2023-06-14T02:18:25;4.63;;;3.87;;
36443;SDS011;24692;45.642;13.806;2023-06-14T02:20:52;5.33;;;3.57;;
36443;SDS011;24692;45.642;13.806;2023-06-14T02:23:18;6.93;;;3.88;;
36443;SDS011;24692;45.642;13.806;2023-06-14T02:25:43;4.97;;;3.53;;
36443;SDS011;24692;45.642;13.806;2023-06-14T02:28:11;5.28;;;3.55;;
36443;SDS011;24692;45.642;13.806;2023-06-14T02:30:36;5.60;;;3.73;;
36443;SDS011;24692;45.642;13.806;2023-06-14T02:33:02;7.25;;;3.42;;
36443;SDS011;24692;45.642;13.806;2023-06-14T02:35:30;6.55;;;3.78;;
36443;SDS011;24692;45.642;13.806;2023-06-14T02:37:55;4.70;;;3.70;;
36443;SDS011;24692;45.642;13.806;2023-06-14T02:40:21;4.30;;;3.65;;
36443;SDS011;24692;45.642;13.806;2023-06-14T02:42:47;4.30;;;3.90;;
36443;SDS011;24692;45.642;13.806;2023-06-14T02:45:13;5.33;;;4.17;;
36443;SDS011;24692;45.642;13.806;2023-06-14T02:47:38;6.68;;;4.13;;
36443;SDS011;24692;45.642;13.806;2023-06-14T02:50:05;4.68;;;3.88;;
36443;SDS011;24692;45.642;13.806;2023-06-14T02:52:31;10.40;;;4.10;;
36443;SDS011;24692;45.642;13.806;2023-06-14T02:54:58;5.33;;;3.83;;
36443;SDS011;24692;45.642;13.806;2023-06-14T02:57:24;6.83;;;3.87;;
36443;SDS011;24692;45.642;13.806;2023-06-14T02:59:49;11.53;;;4.10;;
36443;SDS011;24692;45.642;13.806;2023-06-14T03:02:15;8.70;;;4.07;;
36443;SDS011;24692;45.642;13.806;2023-06-14T03:04:40;5.37;;;3.90;;
36443;SDS011;24692;45.642;13.806;2023-06-14T03:07:09;4.43;;;3.70;;
36443;SDS011;24692;45.642;13.806;2023-06-14T03:09:36;4.50;;;3.63;;
36443;SDS011;24692;45.642;13.806;2023-06-14T03:12:02;7.47;;;3.63;;
36443;SDS011;24692;45.642;13.806;2023-06-14T03:14:29;4.60;;;3.60;;
36443;SDS011;24692;45.642;13.806;2023-06-14T03:16:55;5.87;;;3.93;;
36443;SDS011;24692;45.642;13.806;2023-06-14T03:19:24;4.88;;;3.65;;
36443;SDS011;24692;45.642;13.806;2023-06-14T03:21:53;4.93;;;3.00;;
36443;SDS011;24692;45.642;13.806;2023-06-14T03:24:21;5.17;;;3.87;;
36443;SDS011;24692;45.642;13.806;2023-06-14T03:26:48;7.33;;;3.93;;
36443;SDS011;24692;45.642;13.806;2023-06-14T03:29:14;4.70;;;3.60;;
36443;SDS011;24692;45.642;13.806;2023-06-14T03:31:41;6.85;;;4.07;;
36443;SDS011;24692;45.642;13.806;2023-06-14T03:34:21;5.70;;;3.83;;
36443;SDS011;24692;45.642;13.806;2023-06-14T03:36:46;4.80;;;3.93;;
36443;SDS011;24692;45.642;13.806;2023-06-14T03:39:12;3.90;;;3.50;;
36443;SDS011;24692;45.642;13.806;2023-06-14T03:41:38;7.63;;;3.80;;
36443;SDS011;24692;45.642;13.806;2023-06-14T03:44:03;5.13;;;3.63;;
36443;SDS011;24692;45.642;13.806;2023-06-14T03:46:29;4.37;;;3.60;;
36443;SDS011;24692;45.642;13.806;2023-06-14T03:48:55;7.43;;;3.93;;
36443;SDS011;24692;45.642;13.806;2023-06-14T03:51:20;5.50;;;3.45;;
36443;SDS011;24692;45.642;13.806;2023-06-14T03:53:47;7.55;;;3.30;;
36443;SDS011;24692;45.642;13.806;2023-06-14T03:56:13;5.37;;;3.60;;
36443;SDS011;24692;45.642;13.806;2023-06-14T03:58:38;5.43;;;3.70;;
36443;SDS011;24692;45.642;13.806;2023-06-14T04:01:04;4.35;;;3.70;;
36443;SDS011;24692;45.642;13.806;2023-06-14T04:03:32;6.68;;;3.08;;
36443;SDS011;24692;45.642;13.806;2023-06-14T04:05:58;7.10;;;3.60;;
36443;SDS011;24692;45.642;13.806;2023-06-14T04:08:25;5.20;;;3.73;;
36443;SDS011;24692;45.642;13.806;2023-06-14T04:10:50;4.37;;;3.73;;
36443;SDS011;24692;45.642;13.806;2023-06-14T04:13:16;5.38;;;3.85;;
36443;SDS011;24692;45.642;13.806;2023-06-14T04:15:42;4.07;;;3.40;;
36443;SDS011;24692;45.642;13.806;2023-06-14T04:18:10;5.37;;;3.53;;
36443;SDS011;24692;45.642;13.806;2023-06-14T04:20:36;5.10;;;3.50;;
36443;SDS011;24692;45.642;13.806;2023-06-14T04:23:14;4.95;;;3.60;;
36443;SDS011;24692;45.642;13.806;2023-06-14T04:25:46;4.88;;;3.42;;
36443;SDS011;24692;45.642;13.806;2023-06-14T04:28:14;4.55;;;3.70;;
36443;SDS011;24692;45.642;13.806;2023-06-14T04:30:41;3.90;;;3.47;;
36443;SDS011;24692;45.642;13.806;2023-06-14T04:33:07;4.05;;;3.63;;
36443;SDS011;24692;45.642;13.806;2023-06-14T04:35:34;6.50;;;3.73;;
36443;SDS011;24692;45.642;13.806;2023-06-14T04:38:02;5.25;;;3.38;;
36443;SDS011;24692;45.642;13.806;2023-06-14T04:40:30;5.63;;;3.42;;
36443;SDS011;24692;45.642;13.806;2023-06-14T04:42:56;6.65;;;3.90;;
36443;SDS011;24692;45.642;13.806;2023-06-14T04:45:22;8.60;;;3.80;;
36443;SDS011;24692;45.642;13.806;2023-06-14T04:47:49;7.40;;;3.72;;
36443;SDS011;24692;45.642;13.806;2023-06-14T04:50:16;10.02;;;3.83;;
36443;SDS011;24692;45.642;13.806;2023-06-14T04:52:42;4.35;;;3.58;;
36443;SDS011;24692;45.642;13.806;2023-06-14T04:55:07;4.35;;;3.53;;
36443;SDS011;24692;45.642;13.806;2023-06-14T04:57:33;5.63;;;3.70;;
36443;SDS011;24692;45.642;13.806;2023-06-14T05:00:00;4.20;;;3.65;;
36443;SDS011;24692;45.642;13.806;2023-06-14T05:02:29;5.32;;;3.35;;
36443;SDS011;24692;45.642;13.806;2023-06-14T05:04:55;4.27;;;3.70;;
36443;SDS011;24692;45.642;13.806;2023-06-14T05:07:21;5.00;;;3.47;;
36443;SDS011;24692;45.642;13.806;2023-06-14T05:09:49;5.35;;;3.53;;
36443;SDS011;24692;45.642;13.806;2023-06-14T05:12:14;4.40;;;3.43;;
36443;SDS011;24692;45.642;13.806;2023-06-14T05:14:43;4.07;;;3.67;;
36443;SDS011;24692;45.642;13.806;2023-06-14T05:17:09;5.35;;;3.75;;
36443;SDS011;24692;45.642;13.806;2023-06-14T05:19:35;5.95;;;3.40;;
36443;SDS011;24692;45.642;13.806;2023-06-14T05:22:00;3.95;;;3.55;;
36443;SDS011;24692;45.642;13.806;2023-06-14T05:24:28;5.78;;;3.88;;
36443;SDS011;24692;45.642;13.806;2023-06-14T05:26:55;5.00;;;3.67;;
36443;SDS011;24692;45.642;13.806;2023-06-14T05:29:21;8.05;;;3.72;;
36443;SDS011;24692;45.642;13.806;2023-06-14T05:31:47;4.18;;;3.67;;
36443;SDS011;24692;45.642;13.806;2023-06-14T05:34:12;5.10;;;3.50;;
36443;SDS011;24692;45.642;13.806;2023-06-14T05:36:38;5.13;;;3.83;;
36443;SDS011;24692;45.642;13.806;2023-06-14T05:39:04;4.43;;;4.00;;
36443;SDS011;24692;45.642;13.806;2023-06-14T05:41:31;7.28;;;3.70;;
36443;SDS011;24692;45.642;13.806;2023-06-14T05:43:57;6.72;;;3.63;;
36443;SDS011;24692;45.642;13.806;2023-06-14T05:46:23;6.45;;;3.75;;
36443;SDS011;24692;45.642;13.806;2023-06-14T05:48:53;5.72;;;3.88;;
36443;SDS011;24692;45.642;13.806;2023-06-14T05:51:20;8.73;;;3.95;;
36443;SDS011;24692;45.642;13.806;2023-06-14T05:53:48;4.95;;;3.30;;
36443;SDS011;24692;45.642;13.806;2023-06-14T05:56:14;5.82;;;3.70;;
36443;SDS011;24692;45.642;13.806;2023-06-14T05:58:42;6.50;;;3.50;;
36443;SDS011;24692;45.642;13.806;2023-06-14T06:01:08;10.30;;;3.60;;
36443;SDS011;24692;45.642;13.806;2023-06-14T06:03:34;6.88;;;3.67;;
36443;SDS011;24692;45.642;13.806;2023-06-14T06:06:00;3.97;;;3.53;;
36443;SDS011;24692;45.642;13.806;2023-06-14T06:08:26;4.72;;;3.60;;
36443;SDS011;24692;45.642;13.806;2023-06-14T06:10:52;3.90;;;3.53;;
36443;SDS011;24692;45.642;13.806;2023-06-14T06:13:18;4.50;;;3.33;;
36443;SDS011;24692;45.642;13.806;2023-06-14T06:15:44;6.50;;;3.72;;
36443;SDS011;24692;45.642;13.806;2023-06-14T06:18:10;4.33;;;3.53;;
36443;SDS011;24692;45.642;13.806;2023-06-14T06:20:36;7.10;;;3.72;;
36443;SDS011;24692;45.642;13.806;2023-06-14T06:23:02;5.68;;;3.83;;
36443;SDS011;24692;45.642;13.806;2023-06-14T06:25:27;5.63;;;3.25;;
36443;SDS011;24692;45.642;13.806;2023-06-14T06:27:54;3.93;;;3.53;;
36443;SDS011;24692;45.642;13.806;2023-06-14T06:30:21;4.38;;;3.20;;
36443;SDS011;24692;45.642;13.806;2023-06-14T06:32:47;6.68;;;3.70;;
36443;SDS011;24692;45.642;13.806;2023-06-14T06:35:13;5.05;;;3.17;;
36443;SDS011;24692;45.642;13.806;2023-06-14T06:37:39;4.47;;;3.78;;
36443;SDS011;24692;45.642;13.806;2023-06-14T06:40:06;4.28;;;3.65;;
36443;SDS011;24692;45.642;13.806;2023-06-14T06:42:33;7.35;;;5.05;;
36443;SDS011;24692;45.642;13.806;2023-06-14T06:44:58;5.50;;;4.10;;
36443;SDS011;24692;45.642;13.806;2023-06-14T06:47:25;6.43;;;4.40;;
36443;SDS011;24692;45.642;13.806;2023-06-14T06:49:51;9.52;;;5.53;;
36443;SDS011;24692;45.642;13.806;2023-06-14T06:52:16;10.57;;;6.40;;
36443;SDS011;24692;45.642;13.806;2023-06-14T06:54:42;10.38;;;5.70;;
36443;SDS011;24692;45.642;13.806;2023-06-14T06:57:08;9.75;;;5.85;;
36443;SDS011;24692;45.642;13.806;2023-06-14T06:59:34;8.25;;;4.57;;
36443;SDS011;24692;45.642;13.806;2023-06-14T07:01:59;8.45;;;4.13;;
36443;SDS011;24692;45.642;13.806;2023-06-14T07:04:25;5.88;;;3.80;;
36443;SDS011;24692;45.642;13.806;2023-06-14T07:06:51;5.55;;;3.90;;
36443;SDS011;24692;45.642;13.806;2023-06-14T07:09:16;5.25;;;3.75;;
36443;SDS011;24692;45.642;13.806;2023-06-14T07:11:44;5.68;;;3.75;;
36443;SDS011;24692;45.642;13.806;2023-06-14T07:14:10;8.48;;;3.70;;
36443;SDS011;24692;45.642;13.806;2023-06-14T07:16:36;4.25;;;3.47;;
36443;SDS011;24692;45.642;13.806;2023-06-14T07:19:03;6.70;;;3.83;;
36443;SDS011;24692;45.642;13.806;2023-06-14T07:21:29;6.55;;;3.58;;
36443;SDS011;24692;45.642;13.806;2023-06-14T07:23:55;5.82;;;3.63;;
36443;SDS011;24692;45.642;13.806;2023-06-14T07:26:21;4.68;;;3.28;;
36443;SDS011;24692;45.642;13.806;2023-06-14T07:28:48;4.07;;;3.40;;
36443;SDS011;24692;45.642;13.806;2023-06-14T07:31:17;4.50;;;3.65;;
36443;SDS011;24692;45.642;13.806;2023-06-14T07:33:44;4.25;;;3.70;;
36443;SDS011;24692;45.642;13.806;2023-06-14T07:36:10;4.55;;;3.65;;
36443;SDS011;24692;45.642;13.806;2023-06-14T07:38:35;5.05;;;3.70;;
36443;SDS011;24692;45.642;13.806;2023-06-14T07:41:01;4.70;;;3.70;;
36443;SDS011;24692;45.642;13.806;2023-06-14T07:43:28;7.35;;;3.60;;
36443;SDS011;24692;45.642;13.806;2023-06-14T07:45:54;5.78;;;3.70;;
36443;SDS011;24692;45.642;13.806;2023-06-14T07:48:20;5.05;;;3.50;;
36443;SDS011;24692;45.642;13.806;2023-06-14T07:50:46;4.93;;;3.55;;
36443;SDS011;24692;45.642;13.806;2023-06-14T07:53:11;5.18;;;3.42;;
36443;SDS011;24692;45.642;13.806;2023-06-14T07:55:37;5.25;;;3.47;;
36443;SDS011;24692;45.642;13.806;2023-06-14T07:58:03;4.35;;;3.70;;
36443;SDS011;24692;45.642;13.806;2023-06-14T08:00:29;4.82;;;3.80;;
36443;SDS011;24692;45.642;13.806;2023-06-14T08:02:55;6.93;;;3.70;;
36443;SDS011;24692;45.642;13.806;2023-06-14T08:05:27;3.50;;;3.20;;
36443;SDS011;24692;45.642;13.806;2023-06-14T08:07:54;4.47;;;3.78;;
36443;SDS011;24692;45.642;13.806;2023-06-14T08:10:20;5.65;;;3.78;;
36443;SDS011;24692;45.642;13.806;2023-06-14T08:12:46;3.67;;;3.30;;
36443;SDS011;24692;45.642;13.806;2023-06-14T08:15:13;4.43;;;3.40;;
36443;SDS011;24692;45.642;13.806;2023-06-14T08:17:39;6.55;;;3.10;;
36443;SDS011;24692;45.642;13.806;2023-06-14T08:20:05;4.00;;;3.20;;
36443;SDS011;24692;45.642;13.806;2023-06-14T08:22:31;3.95;;;3.45;;
36443;SDS011;24692;45.642;13.806;2023-06-14T08:24:59;4.75;;;3.60;;
36443;SDS011;24692;45.642;13.806;2023-06-14T08:27:26;7.22;;;3.53;;
36443;SDS011;24692;45.642;13.806;2023-06-14T08:29:51;5.03;;;3.70;;
36443;SDS011;24692;45.642;13.806;2023-06-14T08:32:17;3.67;;;3.20;;
36443;SDS011;24692;45.642;13.806;2023-06-14T08:34:43;4.05;;;3.40;;
36443;SDS011;24692;45.642;13.806;2023-06-14T08:37:08;6.60;;;3.20;;
36443;SDS011;24692;45.642;13.806;2023-06-14T08:39:34;9.35;;;3.80;;
36443;SDS011;24692;45.642;13.806;2023-06-14T08:42:01;4.55;;;3.60;;
36443;SDS011;24692;45.642;13.806;2023-06-14T08:44:28;4.25;;;3.55;;
36443;SDS011;24692;45.642;13.806;2023-06-14T08:46:55;5.85;;;3.53;;
36443;SDS011;24692;45.642;13.806;2023-06-14T08:49:24;3.63;;;3.33;;
36443;SDS011;24692;45.642;13.806;2023-06-14T08:51:56;5.82;;;3.47;;
36443;SDS011;24692;45.642;13.806;2023-06-14T08:54:23;5.45;;;3.10;;
36443;SDS011;24692;45.642;13.806;2023-06-14T08:56:59;4.63;;;3.17;;
36443;SDS011;24692;45.642;13.806;2023-06-14T08:59:28;4.57;;;3.15;;
36443;SDS011;24692;45.642;13.806;2023-06-14T09:01:56;3.42;;;2.92;;
36443;SDS011;24692;45.642;13.806;2023-06-14T09:04:22;5.80;;;3.80;;
36443;SDS011;24692;45.642;13.806;2023-06-14T09:06:49;3.80;;;3.17;;
36443;SDS011;24692;45.642;13.806;2023-06-14T09:09:20;4.15;;;3.58;;
36443;SDS011;24692;45.642;13.806;2023-06-14T09:11:48;9.77;;;3.75;;
36443;SDS011;24692;45.642;13.806;2023-06-14T09:14:19;5.18;;;3.60;;
36443;SDS011;24692;45.642;13.806;2023-06-14T09:16:46;5.85;;;3.28;;
36443;SDS011;24692;45.642;13.806;2023-06-14T09:19:24;4.40;;;3.15;;
36443;SDS011;24692;45.642;13.806;2023-06-14T09:21:50;5.13;;;3.33;;
36443;SDS011;24692;45.642;13.806;2023-06-14T09:24:17;5.72;;;3.65;;
36443;SDS011;24692;45.642;13.806;2023-06-14T09:26:46;6.32;;;3.60;;
36443;SDS011;24692;45.642;13.806;2023-06-14T09:29:12;4.80;;;3.33;;
36443;SDS011;24692;45.642;13.806;2023-06-14T09:31:38;5.70;;;3.45;;
36443;SDS011;24692;45.642;13.806;2023-06-14T09:34:04;5.32;;;3.70;;
36443;SDS011;24692;45.642;13.806;2023-06-14T09:36:31;6.00;;;3.67;;
36443;SDS011;24692;45.642;13.806;2023-06-14T09:39:01;4.47;;;3.70;;
36443;SDS011;24692;45.642;13.806;2023-06-14T09:41:32;5.85;;;3.80;;
36443;SDS011;24692;45.642;13.806;2023-06-14T09:43:59;4.85;;;3.65;;
36443;SDS011;24692;45.642;13.806;2023-06-14T09:46:27;3.70;;;3.40;;
36443;SDS011;24692;45.642;13.806;2023-06-14T09:48:54;8.75;;;3.53;;
36443;SDS011;24692;45.642;13.806;2023-06-14T09:51:20;4.45;;;3.55;;
36443;SDS011;24692;45.642;13.806;2023-06-14T09:53:49;3.85;;;3.45;;
36443;SDS011;24692;45.642;13.806;2023-06-14T09:56:19;8.82;;;3.78;;
36443;SDS011;24692;45.642;13.806;2023-06-14T09:58:51;4.78;;;3.70;;
36443;SDS011;24692;45.642;13.806;2023-06-14T10:01:20;5.30;;;3.70;;
36443;SDS011;24692;45.642;13.806;2023-06-14T10:03:46;4.88;;;3.25;;
36443;SDS011;24692;45.642;13.806;2023-06-14T10:06:15;4.65;;;3.30;;
36443;SDS011;24692;45.642;13.806;2023-06-14T10:08:41;6.30;;;3.60;;
36443;SDS011;24692;45.642;13.806;2023-06-14T10:11:08;4.97;;;3.47;;
36443;SDS011;24692;45.642;13.806;2023-06-14T10:13:34;4.28;;;3.50;;
36443;SDS011;24692;45.642;13.806;2023-06-14T10:16:12;7.00;;;3.40;;
36443;SDS011;24692;45.642;13.806;2023-06-14T10:18:49;4.95;;;3.50;;
36443;SDS011;24692;45.642;13.806;2023-06-14T10:23:51;6.13;;;3.60;;
36443;SDS011;24692;45.642;13.806;2023-06-14T10:26:18;8.48;;;3.60;;
36443;SDS011;24692;45.642;13.806;2023-06-14T10:28:55;9.05;;;3.78;;
36443;SDS011;24692;45.642;13.806;2023-06-14T10:31:45;5.38;;;3.40;;
36443;SDS011;24692;45.642;13.806;2023-06-14T10:34:28;4.45;;;3.60;;
36443;SDS011;24692;45.642;13.806;2023-06-14T10:39:50;7.45;;;3.92;;
36443;SDS011;24692;45.642;13.806;2023-06-14T10:42:18;6.50;;;3.40;;
36443;SDS011;24692;45.642;13.806;2023-06-14T10:44:51;5.00;;;3.85;;
36443;SDS011;24692;45.642;13.806;2023-06-14T10:47:25;6.47;;;3.58;;
36443;SDS011;24692;45.642;13.806;2023-06-14T10:49:54;5.18;;;3.45;;
36443;SDS011;24692;45.642;13.806;2023-06-14T10:52:27;5.43;;;3.60;;
36443;SDS011;24692;45.642;13.806;2023-06-14T10:55:04;6.50;;;3.80;;
36443;SDS011;24692;45.642;13.806;2023-06-14T10:57:36;4.90;;;4.03;;
36443;SDS011;24692;45.642;13.806;2023-06-14T11:00:05;5.00;;;3.97;;
36443;SDS011;24692;45.642;13.806;2023-06-14T11:05:15;5.95;;;3.90;;
36443;SDS011;24692;45.642;13.806;2023-06-14T11:07:48;4.82;;;4.03;;
36443;SDS011;24692;45.642;13.806;2023-06-14T11:10:43;4.40;;;4.00;;
36443;SDS011;24692;45.642;13.806;2023-06-14T11:13:12;6.50;;;4.15;;
36443;SDS011;24692;45.642;13.806;2023-06-14T11:15:44;4.50;;;4.10;;
36443;SDS011;24692;45.642;13.806;2023-06-14T11:18:14;4.93;;;3.80;;
36443;SDS011;24692;45.642;13.806;2023-06-14T11:20:41;4.47;;;3.92;;
36443;SDS011;24692;45.642;13.806;2023-06-14T11:23:07;4.20;;;3.80;;
36443;SDS011;24692;45.642;13.806;2023-06-14T11:25:33;4.25;;;3.75;;
36443;SDS011;24692;45.642;13.806;2023-06-14T11:27:58;4.18;;;3.65;;
36443;SDS011;24692;45.642;13.806;2023-06-14T11:30:24;3.92;;;3.53;;
36443;SDS011;24692;45.642;13.806;2023-06-14T11:32:51;4.20;;;3.80;;
36443;SDS011;24692;45.642;13.806;2023-06-14T11:35:19;4.05;;;3.42;;
36443;SDS011;24692;45.642;13.806;2023-06-14T11:37:48;4.20;;;3.50;;
36443;SDS011;24692;45.642;13.806;2023-06-14T11:40:14;4.45;;;3.80;;
36443;SDS011;24692;45.642;13.806;2023-06-14T11:42:41;3.75;;;3.45;;
36443;SDS011;24692;45.642;13.806;2023-06-14T11:45:07;4.57;;;3.22;;
36443;SDS011;24692;45.642;13.806;2023-06-14T11:47:38;4.68;;;2.90;;
36443;SDS011;24692;45.642;13.806;2023-06-14T11:50:06;3.58;;;2.60;;
36443;SDS011;24692;45.642;13.806;2023-06-14T11:52:36;4.20;;;2.95;;
36443;SDS011;24692;45.642;13.806;2023-06-14T11:55:02;5.00;;;3.17;;
36443;SDS011;24692;45.642;13.806;2023-06-14T11:57:34;4.05;;;3.05;;
36443;SDS011;24692;45.642;13.806;2023-06-14T12:00:04;3.55;;;3.22;;
36443;SDS011;24692;45.642;13.806;2023-06-14T12:02:32;4.57;;;3.47;;
36443;SDS011;24692;45.642;13.806;2023-06-14T12:05:03;6.43;;;3.22;;
36443;SDS011;24692;45.642;13.806;2023-06-14T12:07:31;4.88;;;3.47;;
36443;SDS011;24692;45.642;13.806;2023-06-14T12:12:23;3.45;;;3.15;;
36443;SDS011;24692;45.642;13.806;2023-06-14T12:14:53;5.63;;;3.65;;
36443;SDS011;24692;45.642;13.806;2023-06-14T12:17:20;3.97;;;3.40;;
36443;SDS011;24692;45.642;13.806;2023-06-14T12:19:46;6.35;;;3.60;;
36443;SDS011;24692;45.642;13.806;2023-06-14T12:22:15;5.10;;;4.05;;
36443;SDS011;24692;45.642;13.806;2023-06-14T12:24:44;4.78;;;3.20;;
36443;SDS011;24692;45.642;13.806;2023-06-14T12:27:11;3.65;;;3.28;;
36443;SDS011;24692;45.642;13.806;2023-06-14T12:29:40;4.43;;;3.90;;
36443;SDS011;24692;45.642;13.806;2023-06-14T12:32:10;6.68;;;3.85;;
36443;SDS011;24692;45.642;13.806;2023-06-14T12:34:37;5.30;;;3.80;;
36443;SDS011;24692;45.642;13.806;2023-06-14T12:37:03;3.72;;;3.42;;
36443;SDS011;24692;45.642;13.806;2023-06-14T12:39:29;4.25;;;3.80;;
36443;SDS011;24692;45.642;13.806;2023-06-14T12:41:56;7.60;;;3.78;;
36443;SDS011;24692;45.642;13.806;2023-06-14T12:44:22;4.45;;;3.88;;
36443;SDS011;24692;45.642;13.806;2023-06-14T12:46:48;6.13;;;3.90;;
36443;SDS011;24692;45.642;13.806;2023-06-14T12:49:16;4.32;;;3.92;;
36443;SDS011;24692;45.642;13.806;2023-06-14T12:51:42;4.75;;;3.80;;
36443;SDS011;24692;45.642;13.806;2023-06-14T12:54:07;6.35;;;3.95;;
36443;SDS011;24692;45.642;13.806;2023-06-14T12:56:33;4.15;;;3.72;;
36443;SDS011;24692;45.642;13.806;2023-06-14T12:58:59;5.30;;;3.78;;
36443;SDS011;24692;45.642;13.806;2023-06-14T13:01:25;5.93;;;3.85;;
36443;SDS011;24692;45.642;13.806;2023-06-14T13:03:51;4.07;;;3.53;;
36443;SDS011;24692;45.642;13.806;2023-06-14T13:06:20;6.03;;;4.20;;
36443;SDS011;24692;45.642;13.806;2023-06-14T13:08:47;5.03;;;3.70;;
36443;SDS011;24692;45.642;13.806;2023-06-14T13:11:13;6.07;;;3.70;;
36443;SDS011;24692;45.642;13.806;2023-06-14T13:13:39;6.32;;;3.85;;
36443;SDS011;24692;45.642;13.806;2023-06-14T13:16:05;4.18;;;3.53;;
36443;SDS011;24692;45.642;13.806;2023-06-14T13:18:30;5.68;;;4.07;;
36443;SDS011;24692;45.642;13.806;2023-06-14T13:20:56;4.07;;;3.70;;
36443;SDS011;24692;45.642;13.806;2023-06-14T13:23:22;6.95;;;4.22;;
36443;SDS011;24692;45.642;13.806;2023-06-14T13:25:47;6.60;;;3.95;;
36443;SDS011;24692;45.642;13.806;2023-06-14T13:28:15;5.15;;;4.00;;
36443;SDS011;24692;45.642;13.806;2023-06-14T13:30:40;4.43;;;3.85;;
36443;SDS011;24692;45.642;13.806;2023-06-14T13:33:06;5.85;;;4.32;;
36443;SDS011;24692;45.642;13.806;2023-06-14T13:35:32;4.65;;;3.80;;
36443;SDS011;24692;45.642;13.806;2023-06-14T13:37:57;5.05;;;4.07;;
36443;SDS011;24692;45.642;13.806;2023-06-14T13:40:23;4.90;;;3.83;;
36443;SDS011;24692;45.642;13.806;2023-06-14T13:42:49;4.32;;;3.92;;
36443;SDS011;24692;45.642;13.806;2023-06-14T13:45:15;6.32;;;4.30;;
36443;SDS011;24692;45.642;13.806;2023-06-14T13:47:40;6.35;;;4.40;;
36443;SDS011;24692;45.642;13.806;2023-06-14T13:50:06;5.22;;;3.83;;
36443;SDS011;24692;45.642;13.806;2023-06-14T13:52:32;6.63;;;4.03;;
36443;SDS011;24692;45.642;13.806;2023-06-14T13:54:58;7.35;;;4.30;;
36443;SDS011;24692;45.642;13.806;2023-06-14T13:57:26;5.57;;;4.03;;
36443;SDS011;24692;45.642;13.806;2023-06-14T13:59:51;6.80;;;4.40;;
36443;SDS011;24692;45.642;13.806;2023-06-14T14:02:20;5.00;;;4.03;;
36443;SDS011;24692;45.642;13.806;2023-06-14T14:04:46;5.28;;;3.83;;
36443;SDS011;24692;45.642;13.806;2023-06-14T14:07:17;6.65;;;4.55;;
36443;SDS011;24692;45.642;13.806;2023-06-14T14:09:44;8.27;;;4.20;;
36443;SDS011;24692;45.642;13.806;2023-06-14T14:12:09;4.35;;;3.95;;
36443;SDS011;24692;45.642;13.806;2023-06-14T14:14:36;7.22;;;3.90;;
36443;SDS011;24692;45.642;13.806;2023-06-14T14:17:02;6.45;;;4.07;;
36443;SDS011;24692;45.642;13.806;2023-06-14T14:19:28;5.00;;;3.67;;
36443;SDS011;24692;45.642;13.806;2023-06-14T14:21:53;4.50;;;4.10;;
36443;SDS011;24692;45.642;13.806;2023-06-14T14:24:19;3.75;;;3.42;;
36443;SDS011;24692;45.642;13.806;2023-06-14T14:26:45;4.13;;;3.72;;
36443;SDS011;24692;45.642;13.806;2023-06-14T14:29:13;6.90;;;3.65;;
36443;SDS011;24692;45.642;13.806;2023-06-14T14:31:39;5.47;;;4.18;;
36443;SDS011;24692;45.642;13.806;2023-06-14T14:34:05;5.53;;;4.05;;
36443;SDS011;24692;45.642;13.806;2023-06-14T14:36:31;5.13;;;3.83;;
36443;SDS011;24692;45.642;13.806;2023-06-14T14:38:58;5.22;;;3.90;;
36443;SDS011;24692;45.642;13.806;2023-06-14T14:41:24;5.20;;;4.10;;
36443;SDS011;24692;45.642;13.806;2023-06-14T14:43:50;5.45;;;4.13;;
36443;SDS011;24692;45.642;13.806;2023-06-14T14:46:15;5.63;;;4.20;;
36443;SDS011;24692;45.642;13.806;2023-06-14T14:48:42;5.05;;;3.67;;